• Join FlightAware (Why Join?)
  • Login
  • US Flag 
08:20AM EDT


 

Airport Tracker/Info


-or-


 

Live Flight TrackerFlight Track Log ✈ N8223C ✈ 07-Jul-2013 ✈ C04 - KHFY

Flight Track Log - Related Links

Times and Time Zones

All times are in EDT time to prevent confusion due to time zone crossing. See the N8223C flight status page for this flight to view local times or setup timezone preferences in your user account.

Time Position Orientation Groundspeed Altitude Reporting Facility
EDT Latitude Longitude Course Direction KTS MPH feet Rate Location/Type
05:18PM 43.5047 -86.3417 180° South 106 122 3,500  Level Chicago Center
05:19PM 43.4744 -86.3358 172° South 109 125 3,900 360 Climbing Chicago Center
05:20PM 43.4447 -86.3328 176° South 108 124 4,300 360 Climbing Chicago Center
05:21PM 43.4144 -86.3292 175° South 109 125 4,700 360 Climbing Chicago Center
05:22PM 43.4241 -86.3152 180° South  Level Estimated
05:22PM 43.3833 -86.3275 178° South 112 129 5,100  Level Chicago Center
05:23PM 43.3878 -86.3152 180° South  Level FlightAware Approximate
05:23PM 43.3464 -86.3256 178° South 110 127 5,500  Level Chicago Center
05:24PM 43.3144 -86.3242 178° South 114 131 5,900 180 Climbing Chicago Center
05:25PM 43.2797 -86.3247 181° South 123 142 5,900  Level Chicago Center
05:26PM 43.2422 -86.3244 180° South 134 154 5,900  Level Chicago Center
05:27PM 43.2050 -86.3231 178° South 134 154 5,900  Level Chicago Center
05:28PM 43.1603 -86.3225 179° South 134 154 5,900  Level Chicago Center
05:29PM 43.1236 -86.3236 181° South 133 153 6,000  Climbing Chicago Center
05:30PM 43.0867 -86.3242 181° South 132 152 5,900 -60 Descending Chicago Center
05:31PM 43.0497 -86.3253 181° South 134 154 5,900  Level Chicago Center
05:32PM 43.0122 -86.3267 182° South 135 155 5,900  Level Chicago Center
05:33PM 42.9747 -86.3256 179° South 135 155 5,900  Level Chicago Center
05:34PM 42.9300 -86.3239 178° South 135 155 5,900  Level Chicago Center
05:35PM 42.8922 -86.3239 180° South 136 157 5,900  Level Chicago Center
05:36PM 42.8542 -86.3231 179° South 138 159 5,900  Level Chicago Center
05:37PM 42.8169 -86.3208 177° South 136 157 6,000 60 Climbing Chicago Center
05:38PM 42.7786 -86.3211 180° South 138 159 6,100  Climbing Chicago Center
05:39PM 42.7342 -86.3217 181° South 134 154 6,100  Level Chicago Center
05:41PM 42.6964 -86.3197 178° South 136 157 6,100 -60 Level Chicago Center
05:42PM 42.6601 -86.3193 180° South  Level FlightAware Approximate
05:42PM 42.6569 -86.3208 180° South 140 161 6,000  Level Chicago Center
05:43PM 42.6194 -86.3189 178° South 138 159 6,100  Climbing Chicago Center
05:44PM 42.5814 -86.3194 181° South 137 158 6,100 -60 Level Chicago Center
05:45PM 42.5353 -86.3183 179° South 138 159 6,000 -60 Descending Chicago Center
05:46PM 42.4972 -86.3189 181° South 137 158 6,000  Level Chicago Center
05:47PM 42.4592 -86.3186 180° South 137 158 6,000  Level Chicago Center
05:48PM 42.4217 -86.3197 181° South 137 158 6,000  Level Chicago Center
05:49PM 42.3842 -86.3203 181° South 135 155 6,000 -60 Level Chicago Center
05:50PM 42.3458 -86.3217 182° South 137 158 5,900  Descending Chicago Center
05:51PM 42.3008 -86.3214 180° South 136 157 6,000  Climbing Chicago Center
05:52PM 42.2697 -86.3222 181° South 131 151 6,000  Level Chicago Center
05:53PM 42.2253 -86.3233 181° South 132 152 6,000  Level Chicago Center
05:54PM 42.1875 -86.3225 179° South 135 155 6,000  Level Chicago Center
05:55PM 42.1506 -86.3219 179° South 135 155 6,000  Level Chicago Center
05:56PM 42.1136 -86.3219 180° South 133 153 6,000  Level Chicago Center
05:57PM 42.0758 -86.3211 179° South 135 155 6,000  Level Chicago Center
05:58PM 42.0308 -86.3228 182° South 135 155 6,000 -60 Level Chicago Center
05:59PM 41.9925 -86.3217 179° South 138 159 5,900 -60 Descending Chicago Center
06:00PM 41.9556 -86.3217 180° South 135 155 5,900  Level Chicago Center
06:01PM 41.9172 -86.3225 181° South 137 158 6,000  Climbing Chicago Center
06:02PM 41.8803 -86.3156 172° South 134 154 6,000  Level Chicago Center
06:03PM 41.8419 -86.3111 175° South 137 158 6,000  Level Chicago Center
06:04PM 41.7964 -86.3053 175° South 137 158 6,000  Level Chicago Center
06:05PM 41.7589 -86.2997 174° South 137 158 6,000  Level Chicago Center
06:06PM 41.7192 -86.2964 176° South 142 163 6,000 -60 Level Chicago Center
06:07PM 41.6797 -86.2922 175° South 144 166 5,900 -300 Descending Chicago Center
06:08PM 41.6378 -86.2875 175° South 150 173 5,400 -480 Descending Chicago Center
06:09PM 41.5886 -86.2817 175° South 149 171 5,000 -240 Descending Chicago Center
06:11PM 41.5486 -86.2764 174° South 146 168 4,900  Descending Chicago Center
06:12PM 41.5108 -86.2711 174° South 141 162 5,000  Climbing Chicago Center
06:13PM 41.4739 -86.2667 175° South 137 158 5,000  Level Chicago Center
06:14PM 41.4369 -86.2633 176° South 134 154 5,000  Level Chicago Center
06:15PM 41.3994 -86.2583 174° South 135 155 5,000  Level Chicago Center
06:16PM 41.3564 -86.2528 174° South 132 152 5,000  Level Chicago Center
06:17PM 41.3169 -86.2475 174° South 138 159 5,000  Level Chicago Center
06:18PM 41.2794 -86.2447 177° South 137 158 5,000 -60 Level Chicago Center
06:19PM 41.2431 -86.2431 178° South 134 154 4,900 -60 Descending Chicago Center
06:20PM 41.2058 -86.2381 174° South 133 153 4,900 -60 Level Chicago Center
06:21PM 41.1703 -86.2361 178° South 133 153 4,800 -300 Descending Chicago Center
06:22PM 41.1306 -86.2422 187° South 136 157 4,400 -420 Descending Chicago Center
06:23PM 41.0969 -86.2483 188° South 136 157 4,000 -300 Descending Chicago Center
06:24PM 41.0592 -86.2572 190° South 131 151 3,900  Descending Chicago Center
06:25PM 41.0278 -86.2556 178° South 122 140 4,000  Climbing Chicago Center
06:26PM 40.9906 -86.2506 174° South 124 143 4,000  Level Chicago Center
06:27PM 40.9553 -86.2458 174° South 125 144 4,000  Level Chicago Center
06:28PM 40.9219 -86.2414 174° South 125 144 4,000  Level Chicago Center
06:29PM 40.8847 -86.2336 171° South 125 144 4,000  Level Chicago Center
06:30PM 40.8514 -86.2292 174° South 125 144 4,000  Level Chicago Center
06:31PM 40.8161 -86.2242 174° South 126 145 4,000  Level Chicago Center
06:31PM 40.8025 -86.2200 167° South 126 145 4,000  Level Chicago Center
06:32PM 40.7808 -86.2194 179° South 126 145 4,000  Level Chicago Center
06:32PM 40.7614 -86.2169 174° South 124 143 4,000  Level Chicago Center
06:33PM 40.7275 -86.2122 174° South 124 143 4,000 -60 Level Chicago Center
06:34PM 40.6917 -86.2072 174° South 127 146 3,900 -60 Descending Chicago Center
06:35PM 40.6589 -86.2017 173° South 127 146 3,900  Level Chicago Center
06:36PM 40.6169 -86.1947 173° South 127 146 4,000  Climbing Chicago Center
06:37PM 40.5828 -86.1906 175° South 124 143 3,900  Descending Chicago Center
06:38PM 40.5483 -86.1875 176° South 125 144 4,000  Climbing Chicago Center
06:39PM 40.5144 -86.1839 175° South 123 142 4,000  Level Chicago Center
06:41PM 40.4794 -86.1806 176° South 124 143 4,000  Level Chicago Center
06:42PM 40.4453 -86.1761 174° South 124 143 4,100  Climbing Chicago Center
06:43PM 40.4039 -86.1719 176° South 124 143 4,000 -60 Descending Chicago Center
06:44PM 40.3689 -86.1683 176° South 126 145 4,000 -60 Level Chicago Center
06:45PM 40.3331 -86.1653 176° South 127 146 3,900 -120 Descending Chicago Center
06:46PM 40.2983 -86.1608 174° South 127 146 3,800 -240 Descending Chicago Center
06:47PM 40.2622 -86.1586 177° South 128 147 3,500 -180 Descending Chicago Center
06:48PM 40.2208 -86.1556 177° South 126 145 3,500  Level Chicago Center
06:49PM 40.1886 -86.1517 175° South 122 140 3,500  Level Chicago Center
06:50PM 40.1558 -86.1481 175° South 119 137 3,500  Level Chicago Center